Time;durP1;ratioP1;P1;durP2;ratioP2;P2;SDS_P1;SDS_P2;PMS_P1;PMS_P2;Temp;Humidity;BMP_temperature;BMP_pressure;BME280_temperature;BME280_humidity;BME280_pressure;Samples;Min_cycle;Max_cycle;Signal;HPM_P1;HPM_P2
2021/03/24 00:00:50;;;;;;;55.50;30.35;;;5.90;99.90;;;;;;5091690;28;20059;-78
2021/03/24 00:03:16;;;;;;;57.63;32.65;;;5.90;99.90;;;;;;5093108;28;20028;-77
2021/03/24 00:05:45;;;;;;;55.92;30.40;;;5.90;99.90;;;;;;5092404;28;20115;-77
2021/03/24 00:08:11;;;;;;;57.95;30.30;;;5.90;99.90;;;;;;5092869;28;20107;-77
2021/03/24 00:10:38;;;;;;;62.30;32.65;;;5.80;99.90;;;;;;5092985;28;20081;-78
2021/03/24 00:13:05;;;;;;;53.92;31.15;;;5.90;99.90;;;;;;5093031;28;20484;-77
2021/03/24 00:15:31;;;;;;;54.80;31.30;;;5.80;99.90;;;;;;5090574;28;20028;-77
2021/03/24 00:17:57;;;;;;;54.20;31.58;;;5.90;99.90;;;;;;5092804;28;20027;-77
2021/03/24 00:20:28;;;;;;;51.88;29.85;;;5.90;99.90;;;;;;5092545;28;20047;-77
2021/03/24 00:22:53;;;;;;;62.67;31.88;;;5.90;99.90;;;;;;5092727;28;20020;-77
2021/03/24 00:25:20;;;;;;;50.42;29.83;;;5.90;99.90;;;;;;5090983;28;20403;-78
2021/03/24 00:27:48;;;;;;;57.45;29.77;;;5.90;99.90;;;;;;5092702;28;20035;-78
2021/03/24 00:30:16;;;;;;;55.15;30.48;;;5.80;99.90;;;;;;5091146;28;20485;-78
2021/03/24 00:32:41;;;;;;;58.70;30.80;;;5.80;99.90;;;;;;5092494;28;20510;-78
2021/03/24 00:35:09;;;;;;;59.92;32.70;;;5.90;99.90;;;;;;5091797;28;20028;-77
2021/03/24 00:37:34;;;;;;;59.55;32.28;;;5.80;99.90;;;;;;5112855;28;20031;-78
2021/03/24 00:40:00;;;;;;;58.75;32.28;;;5.90;99.90;;;;;;5111428;28;20387;-78
2021/03/24 00:42:26;;;;;;;55.85;32.15;;;5.80;99.90;;;;;;5112703;28;20027;-77
2021/03/24 00:44:52;;;;;;;59.30;30.90;;;5.90;99.90;;;;;;5107793;28;20066;-78
2021/03/24 00:47:17;;;;;;;58.28;31.58;;;5.90;99.90;;;;;;5091160;28;20043;-78
2021/03/24 00:49:43;;;;;;;61.25;30.50;;;5.80;99.90;;;;;;5091943;28;20096;-78
2021/03/24 00:52:09;;;;;;;63.88;31.85;;;5.80;99.90;;;;;;5090931;28;20035;-78
2021/03/24 00:54:35;;;;;;;62.22;32.13;;;5.80;99.90;;;;;;5091398;28;20023;-78
2021/03/24 00:57:00;;;;;;;57.72;30.98;;;5.80;99.90;;;;;;5110890;28;20028;-78
2021/03/24 00:59:26;;;;;;;70.10;31.45;;;5.80;99.90;;;;;;5111940;28;20395;-78
2021/03/24 01:01:51;;;;;;;55.67;31.27;;;5.90;99.90;;;;;;5092053;28;20035;-78
2021/03/24 01:04:17;;;;;;;61.45;32.25;;;5.90;99.90;;;;;;5090230;28;20085;-78
2021/03/24 01:06:42;;;;;;;56.88;31.65;;;5.90;99.90;;;;;;5091395;28;20028;-78
2021/03/24 01:09:09;;;;;;;59.22;32.20;;;5.90;99.90;;;;;;5091975;28;20027;-78
2021/03/24 01:11:37;;;;;;;67.00;34.92;;;5.90;99.90;;;;;;5090707;28;20035;-78
2021/03/24 01:14:03;;;;;;;59.17;33.00;;;6.00;99.90;;;;;;5089901;28;20020;-78
2021/03/24 01:16:29;;;;;;;67.45;34.38;;;6.00;99.90;;;;;;5094504;28;20395;-78
2021/03/24 01:18:55;;;;;;;72.80;36.75;;;6.00;99.90;;;;;;5091687;28;20024;-78
2021/03/24 01:21:21;;;;;;;71.38;34.65;;;6.00;99.90;;;;;;5091765;28;20604;-77
2021/03/24 01:23:46;;;;;;;66.43;34.08;;;6.00;99.90;;;;;;5089846;28;20025;-78
2021/03/24 01:26:12;;;;;;;66.72;34.67;;;6.00;99.90;;;;;;5091549;28;20032;-77
2021/03/24 01:28:37;;;;;;;64.68;35.65;;;6.00;99.90;;;;;;5091763;28;20123;-78
2021/03/24 01:31:03;;;;;;;70.40;37.13;;;6.00;99.90;;;;;;5091601;28;20086;-78
2021/03/24 01:33:28;;;;;;;72.70;38.53;;;5.90;99.90;;;;;;5091548;28;20020;-77
2021/03/24 01:35:55;;;;;;;72.22;37.42;;;6.00;99.90;;;;;;5089398;28;20028;-78
2021/03/24 01:38:21;;;;;;;84.30;39.47;;;5.90;99.90;;;;;;5090400;28;20020;-78
2021/03/24 01:40:50;;;;;;;73.68;38.83;;;5.90;99.90;;;;;;5091429;28;20032;-78
2021/03/24 01:43:26;;;;;;;80.63;40.95;;;5.80;99.90;;;;;;5090324;28;20103;-78
2021/03/24 01:46:10;;;;;;;74.63;38.83;;;5.80;99.90;;;;;;5090799;28;20498;-78
2021/03/24 01:48:37;;;;;;;87.03;39.00;;;5.80;99.90;;;;;;5091458;28;20050;-78
2021/03/24 01:51:04;;;;;;;84.07;40.40;;;5.80;99.90;;;;;;5091507;28;20032;-78
2021/03/24 01:53:31;;;;;;;86.55;42.58;;;5.80;99.90;;;;;;5091487;28;20681;-78
2021/03/24 01:55:57;;;;;;;84.80;41.13;;;5.80;99.90;;;;;;5089165;28;20036;-78
2021/03/24 01:58:22;;;;;;;85.10;42.92;;;5.80;99.90;;;;;;5090613;28;20020;-78
2021/03/24 02:00:50;;;;;;;87.20;43.60;;;5.80;99.90;;;;;;5090014;28;20063;-78
2021/03/24 02:03:18;;;;;;;91.07;42.75;;;5.80;99.90;;;;;;5090043;28;20031;-78
2021/03/24 02:05:44;;;;;;;93.28;45.15;;;5.70;99.90;;;;;;5089013;28;20031;-78
2021/03/24 02:08:31;;;;;;;107.38;44.40;;;5.70;99.90;;;;;;5090070;28;20392;-78
2021/03/24 02:11:07;;;;;;;94.90;44.90;;;5.70;99.90;;;;;;5091298;28;20373;-78
2021/03/24 02:13:38;;;;;;;104.53;47.25;;;5.70;99.90;;;;;;5091044;28;20103;-78
2021/03/24 02:16:12;;;;;;;93.03;44.47;;;5.70;99.90;;;;;;5091386;28;20539;-78
2021/03/24 02:18:38;;;;;;;101.50;46.78;;;5.70;99.90;;;;;;5091556;28;20445;-78
2021/03/24 02:21:19;;;;;;;117.15;48.78;;;5.70;99.90;;;;;;5093541;28;20437;-78
2021/03/24 02:24:08;;;;;;;104.68;50.72;;;5.70;99.90;;;;;;5093157;28;20024;-78
2021/03/24 02:27:02;;;;;;;110.60;51.35;;;5.70;99.90;;;;;;5089073;28;20032;-78
2021/03/24 02:29:29;;;;;;;111.95;50.70;;;5.70;99.90;;;;;;5093377;28;20026;-77
2021/03/24 02:31:56;;;;;;;118.57;50.65;;;5.70;99.90;;;;;;5093462;28;20123;-78
2021/03/24 02:34:25;;;;;;;114.68;53.72;;;5.70;99.90;;;;;;5094103;28;20104;-77
2021/03/24 02:36:56;;;;;;;125.68;53.83;;;5.70;99.90;;;;;;5096989;28;20031;-78
2021/03/24 02:39:26;;;;;;;132.57;52.58;;;5.80;99.90;;;;;;5094527;28;20496;-77
2021/03/24 02:41:54;;;;;;;118.63;55.38;;;5.80;99.90;;;;;;5094905;28;20388;-77
2021/03/24 02:44:21;;;;;;;124.28;53.83;;;5.70;99.90;;;;;;5093625;28;20024;-77
2021/03/24 02:46:47;;;;;;;120.22;56.50;;;5.80;99.90;;;;;;5093134;28;20469;-78
2021/03/24 02:49:13;;;;;;;124.30;54.08;;;5.80;99.90;;;;;;5094546;28;20046;-77
2021/03/24 02:51:40;;;;;;;135.95;55.28;;;5.80;99.90;;;;;;5111419;28;20396;-78
2021/03/24 02:54:14;;;;;;;121.47;55.85;;;5.90;99.90;;;;;;5114206;28;20461;-77
2021/03/24 02:56:39;;;;;;;;;;;5.90;99.90;;;;;;5098925;28;20063;-78
2021/03/24 02:59:06;;;;;;;115.70;52.05;;;5.90;99.90;;;;;;5092791;28;19951;-78
2021/03/24 03:01:43;;;;;;;124.15;56.88;;;5.90;99.90;;;;;;5093945;28;20034;-78
2021/03/24 03:04:20;;;;;;;113.40;53.50;;;5.90;99.90;;;;;;5092780;28;20016;-78
2021/03/24 03:06:46;;;;;;;125.50;52.53;;;5.90;99.90;;;;;;5093528;28;20537;-78
2021/03/24 03:10:10;;;;;;;116.13;54.72;;;5.90;99.90;;;;;;5094159;28;20028;-77
2021/03/24 03:12:51;;;;;;;127.50;54.58;;;5.90;99.90;;;;;;5068439;28;20033;-78
2021/03/24 03:15:24;;;;;;;119.10;52.85;;;5.90;99.90;;;;;;5100187;28;20577;-78
2021/03/24 03:17:56;;;;;;;122.35;52.08;;;5.80;99.90;;;;;;5113030;28;20062;-78
2021/03/24 03:20:24;;;;;;;108.25;51.65;;;5.90;99.90;;;;;;5114077;28;20024;-77
2021/03/24 03:22:57;;;;;;;97.22;49.22;;;5.90;99.90;;;;;;5114445;28;20446;-78
2021/03/24 03:25:29;;;;;;;119.05;52.58;;;6.00;99.90;;;;;;5108128;28;20088;-77
2021/03/24 03:27:58;;;;;;;117.68;51.03;;;6.00;99.90;;;;;;5093780;28;20028;-77
2021/03/24 03:30:28;;;;;;;131.73;54.42;;;6.00;99.90;;;;;;5091867;28;20024;-78
2021/03/24 03:32:58;;;;;;;112.88;52.83;;;5.90;99.90;;;;;;5093615;28;20032;-77
2021/03/24 03:35:25;;;;;;;121.80;54.08;;;6.00;99.90;;;;;;5092734;28;20566;-78
2021/03/24 03:37:57;;;;;;;116.57;54.40;;;5.90;99.90;;;;;;5092330;28;20145;-78
2021/03/24 03:40:26;;;;;;;121.35;56.67;;;5.90;99.90;;;;;;5093525;28;20024;-78
2021/03/24 03:42:53;;;;;;;128.57;58.38;;;5.90;99.90;;;;;;5091845;28;20016;-78
2021/03/24 03:45:19;;;;;;;123.45;55.75;;;6.00;99.90;;;;;;5105389;28;20028;-77
2021/03/24 03:47:45;;;;;;;115.70;56.55;;;6.00;99.90;;;;;;5093426;28;20031;-78
2021/03/24 03:50:16;;;;;;;127.72;57.63;;;6.00;99.90;;;;;;5093242;28;20375;-77
2021/03/24 03:53:06;;;;;;;135.15;58.55;;;6.00;99.90;;;;;;5093392;28;20036;-78
2021/03/24 03:55:45;;;;;;;142.63;61.85;;;6.00;99.90;;;;;;5092369;28;20369;-78
2021/03/24 03:58:16;;;;;;;140.88;59.85;;;6.00;99.90;;;;;;5093290;28;20024;-77
2021/03/24 04:01:13;;;;;;;139.85;57.97;;;6.00;99.90;;;;;;5102216;28;20117;-78
2021/03/24 04:03:47;;;;;;;146.43;61.95;;;6.00;99.90;;;;;;5107079;28;20139;-78
2021/03/24 04:06:18;;;;;;;136.15;64.00;;;6.00;99.90;;;;;;5113408;28;20020;-78
2021/03/24 04:08:46;;;;;;;150.00;65.78;;;6.00;99.90;;;;;;5112181;28;20024;-78
2021/03/24 04:11:12;;;;;;;141.93;60.38;;;6.00;99.90;;;;;;5103774;28;20035;-78
2021/03/24 04:13:44;;;;;;;134.48;62.60;;;5.90;99.90;;;;;;5092461;28;20065;-78
2021/03/24 04:16:11;;;;;;;143.57;64.45;;;6.00;99.90;;;;;;5092614;28;20032;-77
2021/03/24 04:18:58;;;;;;;154.10;63.17;;;6.00;99.90;;;;;;5092758;28;20035;-77
2021/03/24 04:21:26;;;;;;;149.57;62.63;;;6.00;99.90;;;;;;5091038;28;20099;-77
2021/03/24 04:24:03;;;;;;;137.55;61.30;;;6.00;99.90;;;;;;5090749;28;20042;-77
2021/03/24 04:26:35;;;;;;;133.05;57.80;;;6.00;99.90;;;;;;5092652;28;20012;-77
2021/03/24 04:29:09;;;;;;;128.50;58.07;;;6.10;99.90;;;;;;5092669;28;20024;-77
2021/03/24 04:31:38;;;;;;;;;;;6.10;99.90;;;;;;5091452;28;20024;-78
2021/03/24 04:34:03;;;;;;;121.88;55.55;;;6.00;99.90;;;;;;5091899;28;20006;-77
2021/03/24 04:36:35;;;;;;;134.73;61.10;;;6.00;99.90;;;;;;5092279;28;20488;-78
2021/03/24 04:39:13;;;;;;;135.75;60.85;;;6.00;99.90;;;;;;5092412;28;20032;-78
2021/03/24 04:41:42;;;;;;;129.63;56.45;;;6.10;99.90;;;;;;5091406;28;20028;-77
2021/03/24 04:44:15;;;;;;;123.40;56.53;;;6.10;99.90;;;;;;5091611;28;20512;-78
2021/03/24 04:46:45;;;;;;;108.47;53.93;;;6.10;99.90;;;;;;5092206;28;20031;-78
2021/03/24 04:49:15;;;;;;;105.65;52.83;;;6.10;99.90;;;;;;5092310;28;20078;-78
2021/03/24 04:51:41;;;;;;;110.47;52.92;;;6.10;99.90;;;;;;5105186;28;20035;-77
2021/03/24 04:54:36;;;;;;;124.57;53.33;;;6.20;99.90;;;;;;5110584;28;20024;-78
2021/03/24 04:57:06;;;;;;;102.93;49.40;;;6.10;99.90;;;;;;5103300;28;20035;-77
2021/03/24 04:59:37;;;;;;;105.32;50.00;;;6.20;99.90;;;;;;5111278;28;20495;-77
2021/03/24 05:02:11;;;;;;;102.00;49.70;;;6.20;99.90;;;;;;5092026;28;20032;-78
2021/03/24 05:04:42;;;;;;;100.57;45.90;;;6.20;99.90;;;;;;5091415;28;20020;-78
2021/03/24 05:07:26;;;;;;;90.70;47.20;;;6.30;99.90;;;;;;5092122;28;20055;-78
2021/03/24 05:09:52;;;;;;;94.57;44.65;;;6.30;99.90;;;;;;5090885;28;20024;-78
2021/03/24 05:12:36;;;;;;;83.88;43.20;;;6.30;99.90;;;;;;5091858;28;20028;-77
2021/03/24 05:15:15;;;;;;;85.30;43.70;;;6.30;99.90;;;;;;5089743;28;20510;-77
2021/03/24 05:17:42;;;;;;;85.65;42.55;;;6.30;99.90;;;;;;5091989;28;20400;-78
2021/03/24 05:20:35;;;;;;;89.03;42.50;;;6.30;99.90;;;;;;5090376;28;20500;-77
2021/03/24 05:23:01;;;;;;;92.50;42.40;;;6.40;99.90;;;;;;5091874;28;20028;-78
2021/03/24 05:25:32;;;;;;;94.43;44.17;;;6.30;99.90;;;;;;5091052;28;20032;-78
2021/03/24 05:28:12;;;;;;;82.90;42.22;;;6.30;99.90;;;;;;5090447;28;20588;-77
2021/03/24 05:30:43;;;;;;;82.18;41.90;;;6.30;99.90;;;;;;5100276;28;20062;-77
2021/03/24 05:33:18;;;;;;;80.63;41.05;;;6.30;99.90;;;;;;5110709;28;20032;-77
2021/03/24 05:35:46;;;;;;;82.82;41.00;;;6.40;99.90;;;;;;5111399;28;20475;-78
2021/03/24 05:38:16;;;;;;;75.00;39.85;;;6.40;99.90;;;;;;5112052;28;20042;-77
2021/03/24 05:41:03;;;;;;;90.93;39.78;;;6.50;99.90;;;;;;5102975;28;20387;-77
2021/03/24 05:43:39;;;;;;;76.82;37.85;;;6.50;99.90;;;;;;5090280;28;20024;-78
2021/03/24 05:46:23;;;;;;;76.72;39.45;;;6.50;99.90;;;;;;5091133;28;20543;-78
2021/03/24 05:48:59;;;;;;;74.13;38.78;;;6.50;99.90;;;;;;5091684;28;20051;-78
2021/03/24 05:51:59;;;;;;;77.10;39.10;;;6.50;99.90;;;;;;5102137;28;20024;-77
2021/03/24 05:54:52;;;;;;;72.30;36.22;;;6.60;99.90;;;;;;5114625;28;20031;-78
2021/03/24 05:57:36;;;;;;;75.85;37.25;;;6.60;99.90;;;;;;5108269;28;20050;-78
2021/03/24 06:00:29;;;;;;;68.32;37.42;;;6.60;99.90;;;;;;5109502;28;20020;-77
2021/03/24 06:03:08;;;;;;;68.90;36.03;;;6.70;99.90;;;;;;5083372;28;20079;-77
2021/03/24 06:06:08;;;;;;;69.25;37.67;;;6.70;99.90;;;;;;5094771;28;20024;-77
2021/03/24 06:08:52;;;;;;;71.10;38.47;;;6.70;99.90;;;;;;5093050;28;20089;-77
2021/03/24 06:11:26;;;;;;;;;;;6.70;99.90;;;;;;5094209;28;20028;-77
2021/03/24 06:14:28;;;;;;;80.20;37.60;;;6.70;99.90;;;;;;5094715;28;19912;-78
2021/03/24 06:16:59;;;;;;;75.65;39.47;;;6.60;99.90;;;;;;5093881;28;20080;-77
2021/03/24 06:19:38;;;;;;;62.90;35.42;;;6.70;99.90;;;;;;5093864;28;20032;-77
2021/03/24 06:22:25;;;;;;;65.38;37.70;;;6.60;99.90;;;;;;5093898;28;20498;-77
2021/03/24 06:24:54;;;;;;;76.43;38.28;;;6.60;99.90;;;;;;5093094;28;20032;-77
2021/03/24 06:27:34;;;;;;;73.65;36.28;;;6.50;99.90;;;;;;5094939;28;20388;-77
2021/03/24 06:30:20;;;;;;;73.07;37.65;;;6.60;99.90;;;;;;5093420;28;20489;-77
2021/03/24 06:32:58;;;;;;;80.10;38.70;;;6.60;99.90;;;;;;5093758;28;20024;-77
2021/03/24 06:35:47;;;;;;;68.47;36.15;;;6.70;99.90;;;;;;5094161;28;20024;-78
2021/03/24 06:38:34;;;;;;;75.35;37.65;;;6.70;99.90;;;;;;5094847;28;20024;-78
2021/03/24 06:41:09;;;;;;;67.45;36.42;;;6.80;99.90;;;;;;5094546;28;20111;-77
2021/03/24 06:43:59;;;;;;;84.97;40.90;;;7.00;99.90;;;;;;5093385;28;20027;-78
2021/03/24 06:46:34;;;;;;;82.90;37.60;;;7.00;99.90;;;;;;5094487;28;20016;-77
2021/03/24 06:49:14;;;;;;;72.18;37.00;;;7.00;99.90;;;;;;5093445;28;20020;-77
2021/03/24 06:52:17;;;;;;;74.15;39.10;;;7.10;99.90;;;;;;5095589;28;20028;-78
2021/03/24 06:54:48;;;;;;;68.90;37.22;;;7.30;99.90;;;;;;5092587;28;20028;-78
2021/03/24 06:57:39;;;;;;;81.68;39.78;;;7.40;99.90;;;;;;5094514;28;20372;-78
2021/03/24 07:00:16;;;;;;;83.97;41.30;;;7.50;99.90;;;;;;5094241;28;20487;-78
2021/03/24 07:03:20;;;;;;;88.60;40.30;;;7.60;99.90;;;;;;5094313;28;20032;-78
2021/03/24 07:05:57;;;;;;;76.15;37.97;;;7.70;99.90;;;;;;5092721;28;20016;-79
2021/03/24 07:08:30;;;;;;;77.50;39.55;;;7.80;99.90;;;;;;5094273;28;20020;-78
2021/03/24 07:11:40;;;;;;;79.20;41.10;;;7.80;99.90;;;;;;5092894;28;20028;-77
2021/03/24 07:14:43;;;;;;;84.88;42.17;;;7.80;99.90;;;;;;5093576;28;20103;-77
2021/03/24 07:17:29;;;;;;;80.13;40.28;;;7.60;99.90;;;;;;5094060;28;20032;-78
2021/03/24 07:20:29;;;;;;;80.95;40.50;;;7.50;99.90;;;;;;5093969;28;20028;-77
2021/03/24 07:23:13;;;;;;;83.05;42.08;;;7.60;99.90;;;;;;5093014;28;20069;-78
2021/03/24 07:25:43;;;;;;;79.32;40.65;;;7.70;99.90;;;;;;5109308;28;20034;-79
2021/03/24 07:28:23;;;;;;;75.60;39.85;;;8.00;99.90;;;;;;5109699;28;20114;-78
2021/03/24 07:31:16;;;;;;;90.63;41.17;;;8.20;99.90;;;;;;5106581;28;20028;-79
2021/03/24 07:33:51;;;;;;;80.22;40.85;;;8.30;99.90;;;;;;5108883;28;20020;-78
2021/03/24 07:36:43;;;;;;;80.10;42.25;;;8.40;99.90;;;;;;5104325;28;20097;-79
2021/03/24 07:39:17;;;;;;;78.72;39.47;;;8.20;99.90;;;;;;5108943;28;20031;-77
2021/03/24 07:41:59;;;;;;;82.18;42.60;;;8.20;99.90;;;;;;5106257;27;20088;-78
2021/03/24 07:44:40;;;;;;;83.70;39.78;;;8.30;99.90;;;;;;5103826;28;20038;-79
2021/03/24 07:47:27;;;;;;;83.82;41.40;;;8.30;99.90;;;;;;5109427;27;20040;-78
2021/03/24 07:50:11;;;;;;;85.03;42.42;;;8.40;99.90;;;;;;5110470;27;20020;-79
2021/03/24 07:53:05;;;;;;;83.60;40.50;;;8.50;99.90;;;;;;5109272;28;20488;-79
2021/03/24 07:55:41;;;;;;;85.10;41.05;;;8.60;99.90;;;;;;5107746;28;20032;-78
2021/03/24 07:58:43;;;;;;;87.88;43.10;;;8.50;99.90;;;;;;5109435;27;20114;-78
2021/03/24 08:01:28;;;;;;;87.07;42.45;;;8.70;99.90;;;;;;5102250;27;20055;-77
2021/03/24 08:04:22;;;;;;;80.07;42.55;;;8.80;99.90;;;;;;5109868;28;20020;-78
2021/03/24 08:07:09;;;;;;;86.63;41.87;;;8.90;99.90;;;;;;5108583;28;20031;-77
2021/03/24 08:10:00;;;;;;;82.60;43.17;;;9.00;99.90;;;;;;5109493;28;20708;-78
2021/03/24 08:12:44;;;;;;;94.20;45.25;;;9.00;99.90;;;;;;5110223;28;20027;-77
2021/03/24 08:15:26;;;;;;;93.47;43.63;;;9.20;99.90;;;;;;5096335;28;20445;-77
2021/03/24 08:17:55;;;;;;;82.05;43.15;;;9.20;99.90;;;;;;5109773;28;20030;-77
2021/03/24 08:20:58;;;;;;;86.15;44.13;;;9.40;99.90;;;;;;5106517;28;20940;-77
2021/03/24 08:24:14;;;;;;;83.60;43.30;;;9.40;99.90;;;;;;5108165;27;20111;-77
2021/03/24 08:26:42;;;;;;;84.65;43.95;;;9.70;99.90;;;;;;5082462;28;20035;-78
2021/03/24 08:29:25;;;;;;;88.57;44.53;;;9.80;99.90;;;;;;5086982;28;20081;-77
2021/03/24 08:32:35;;;;;;;85.28;45.20;;;9.90;99.90;;;;;;5085318;28;20081;-78
2021/03/24 08:35:09;;;;;;;87.03;45.17;;;10.10;99.90;;;;;;5102464;28;20108;-78
2021/03/24 08:38:12;;;;;;;88.90;47.75;;;10.10;99.90;;;;;;5109467;28;20471;-76
2021/03/24 08:40:57;;;;;;;91.30;48.90;;;10.00;99.90;;;;;;5109269;28;20027;-77
2021/03/24 08:43:32;;;;;;;84.28;46.97;;;9.80;99.90;;;;;;5111802;28;20016;-77
2021/03/24 08:46:10;;;;;;;99.75;49.83;;;9.70;99.90;;;;;;5099146;28;20491;-77
2021/03/24 08:48:55;;;;;;;99.80;47.65;;;9.80;99.90;;;;;;5090935;28;20476;-77
2021/03/24 08:51:51;;;;;;;95.32;48.08;;;10.20;99.90;;;;;;5091287;28;20027;-77
2021/03/24 08:54:37;;;;;;;94.25;51.15;;;9.90;99.90;;;;;;5091627;28;20039;-77
2021/03/24 08:57:22;;;;;;;95.65;50.28;;;9.80;99.90;;;;;;5092179;28;20042;-76
2021/03/24 08:59:54;;;;;;;111.57;53.95;;;9.90;99.90;;;;;;5090489;28;20036;-77
2021/03/24 09:02:31;;;;;;;101.72;50.45;;;10.20;99.90;;;;;;5092009;28;20062;-76
2021/03/24 09:05:25;;;;;;;95.05;50.72;;;10.30;99.90;;;;;;5090005;28;20107;-76
2021/03/24 09:07:50;;;;;;;104.32;52.92;;;10.30;99.90;;;;;;5091790;28;20550;-77
2021/03/24 09:10:41;;;;;;;90.80;50.78;;;10.10;99.90;;;;;;5091870;28;20024;-78
2021/03/24 09:13:15;;;;;;;102.75;53.20;;;9.90;99.90;;;;;;5090640;28;20047;-77
2021/03/24 09:16:23;;;;;;;103.35;52.97;;;9.70;99.90;;;;;;5090969;28;20016;-78
2021/03/24 09:18:55;;;;;;;93.63;53.72;;;9.60;99.90;;;;;;5091688;28;20124;-78
2021/03/24 09:21:26;;;;;;;105.63;54.78;;;9.70;99.90;;;;;;5091741;28;20031;-78
2021/03/24 09:24:24;;;;;;;94.97;52.00;;;9.70;99.90;;;;;;5091127;28;20024;-79
2021/03/24 09:27:47;;;;;;;98.10;54.33;;;10.00;99.90;;;;;;5091449;28;20020;-78
2021/03/24 09:30:52;;;;;;;96.95;53.75;;;10.10;99.90;;;;;;5075099;28;20472;-78
2021/03/24 09:33:47;;;;;;;96.85;52.30;;;10.50;99.90;;;;;;5072354;28;20070;-78
2021/03/24 09:36:55;;;;;;;102.18;55.33;;;10.60;99.90;;;;;;5110155;28;20031;-78
2021/03/24 09:39:23;;;;;;;112.05;55.50;;;10.40;99.90;;;;;;5091902;28;20032;-78
2021/03/24 09:41:51;;;;;;;100.32;54.70;;;10.30;99.90;;;;;;5090456;28;20142;-79
2021/03/24 09:44:24;;;;;;;109.03;56.58;;;10.20;99.90;;;;;;5090920;28;20042;-79
2021/03/24 09:46:53;;;;;;;111.22;54.97;;;9.80;99.90;;;;;;5090077;28;20538;-79
2021/03/24 09:49:28;;;;;;;109.03;55.55;;;9.80;99.90;;;;;;5091379;28;20024;-79
2021/03/24 09:52:41;;;;;;;102.07;54.25;;;10.00;99.90;;;;;;5091466;28;20031;-79
2021/03/24 09:55:15;;;;;;;111.53;55.70;;;10.30;99.90;;;;;;5067263;28;20708;-80
2021/03/24 09:57:56;;;;;;;110.95;58.20;;;10.50;99.90;;;;;;5090172;28;20028;-80
2021/03/24 10:00:24;;;;;;;99.07;52.45;;;10.60;99.90;;;;;;5091744;28;20035;-80
2021/03/24 10:03:21;;;;;;;103.07;53.83;;;10.90;99.90;;;;;;5091354;28;20154;-79
2021/03/24 10:05:53;;;;;;;115.72;56.30;;;10.90;99.90;;;;;;5089276;28;20024;-81
2021/03/24 10:08:48;;;;;;;103.95;55.95;;;10.80;99.90;;;;;;5091209;28;20054;-80
2021/03/24 10:11:29;;;;;;;112.05;53.58;;;10.70;99.90;;;;;;5088099;28;20036;-80
2021/03/24 10:13:59;;;;;;;103.45;56.60;;;10.70;99.90;;;;;;5090665;28;20388;-83
2021/03/24 10:16:28;;;;;;;103.93;54.88;;;10.80;99.90;;;;;;5090975;28;20039;-84
2021/03/24 10:19:06;;;;;;;113.78;55.20;;;10.80;99.90;;;;;;5091097;28;20109;-80
2021/03/24 10:21:42;;;;;;;111.80;56.60;;;10.80;99.90;;;;;;5091176;28;20020;-80
2021/03/24 10:24:15;;;;;;;104.32;55.22;;;10.90;99.90;;;;;;5089412;28;20081;-79
2021/03/24 10:26:52;;;;;;;121.15;59.53;;;10.60;99.90;;;;;;5092636;28;20436;-79
2021/03/24 10:29:30;;;;;;;103.63;55.03;;;11.00;99.90;;;;;;5095427;28;20036;-80
2021/03/24 10:32:07;;;;;;;110.43;57.42;;;11.10;99.90;;;;;;5111355;28;20066;-78
2021/03/24 10:34:41;;;;;;;106.03;59.28;;;10.90;99.90;;;;;;5102558;28;20031;-78
2021/03/24 10:37:06;;;;;;;111.80;53.88;;;11.00;99.90;;;;;;5121269;28;20023;-77
2021/03/24 10:39:32;;;;;;;111.38;58.58;;;10.90;99.90;;;;;;5130733;27;20076;-77
2021/03/24 10:42:18;;;;;;;108.32;57.70;;;10.70;99.90;;;;;;5135640;27;20416;-78
2021/03/24 10:45:20;;;;;;;116.45;58.70;;;10.70;99.90;;;;;;5131665;27;20031;-77
2021/03/24 10:48:04;;;;;;;97.88;53.75;;;10.60;99.90;;;;;;5114879;28;20031;-77
2021/03/24 10:50:50;;;;;;;119.70;58.92;;;10.60;99.90;;;;;;5114961;28;20387;-77
2021/03/24 10:53:30;;;;;;;110.05;57.33;;;10.80;99.90;;;;;;5114967;28;20365;-78
2021/03/24 10:56:30;;;;;;;98.25;54.25;;;10.60;99.90;;;;;;5104502;28;20043;-80
2021/03/24 10:59:03;;;;;;;99.43;53.25;;;10.70;99.90;;;;;;5093016;28;20511;-79
2021/03/24 11:01:51;;;;;;;111.63;55.58;;;10.80;99.90;;;;;;5093027;28;20036;-77
2021/03/24 11:04:32;;;;;;;115.93;55.40;;;10.50;99.90;;;;;;5093598;28;20020;-78
2021/03/24 11:07:15;;;;;;;106.20;55.17;;;10.70;99.90;;;;;;5094261;28;20108;-78
2021/03/24 11:09:58;;;;;;;116.93;52.47;;;10.70;99.90;;;;;;5108380;28;20411;-78
2021/03/24 11:12:35;;;;;;;106.93;53.63;;;10.60;99.90;;;;;;5114642;28;20038;-78
2021/03/24 11:15:15;;;;;;;102.90;55.10;;;10.90;99.90;;;;;;5109126;28;20076;-77
2021/03/24 11:17:43;;;;;;;114.93;55.50;;;10.70;99.90;;;;;;5094139;28;20024;-78
2021/03/24 11:20:38;;;;;;;105.53;54.70;;;10.80;99.90;;;;;;5093936;28;20039;-77
2021/03/24 11:23:08;;;;;;;109.03;54.25;;;10.90;99.90;;;;;;5092561;28;20456;-77
2021/03/24 11:25:40;;;;;;;97.45;52.20;;;11.20;99.90;;;;;;5093061;28;20024;-77
2021/03/24 11:28:24;;;;;;;102.15;54.47;;;11.20;99.90;;;;;;5093710;28;20098;-78
2021/03/24 11:31:11;;;;;;;107.90;53.65;;;11.00;99.90;;;;;;5104641;28;20031;-78
2021/03/24 11:34:05;;;;;;;89.35;50.08;;;11.00;99.90;;;;;;5113848;28;20034;-78
2021/03/24 11:36:40;;;;;;;104.50;54.77;;;11.20;99.90;;;;;;5103463;28;20074;-78
2021/03/24 11:39:17;;;;;;;110.38;55.33;;;11.40;99.90;;;;;;5109429;28;20298;-78
2021/03/24 11:41:44;;;;;;;99.93;51.15;;;11.40;99.90;;;;;;5093696;28;20035;-78
2021/03/24 11:44:14;;;;;;;103.53;55.25;;;11.50;99.90;;;;;;5091334;28;20055;-78
2021/03/24 11:46:42;;;;;;;104.80;54.70;;;11.40;99.90;;;;;;5093348;28;20028;-78
2021/03/24 11:49:35;;;;;;;105.70;55.05;;;11.50;99.90;;;;;;5092172;28;20082;-79
2021/03/24 11:52:34;;;;;;;102.45;51.97;;;11.60;99.90;;;;;;5088325;28;20584;-78
2021/03/24 11:55:26;;;;;;;102.82;54.47;;;11.90;99.90;;;;;;5091182;28;20032;-78
2021/03/24 11:58:09;;;;;;;104.90;56.17;;;12.20;99.90;;;;;;5091839;28;20023;-79
2021/03/24 12:00:46;;;;;;;95.43;50.75;;;12.20;99.90;;;;;;5092150;28;20063;-78
2021/03/24 12:03:40;;;;;;;92.45;49.60;;;12.40;99.90;;;;;;5093196;28;20821;-78
2021/03/24 12:06:33;;;;;;;98.53;50.67;;;12.50;99.90;;;;;;5092667;28;20028;-79
2021/03/24 12:09:04;;;;;;;88.28;49.20;;;12.80;99.90;;;;;;5092857;28;20032;-78
2021/03/24 12:11:33;;;;;;;89.93;48.88;;;12.90;99.90;;;;;;5092916;28;20134;-78
2021/03/24 12:14:20;;;;;;;79.53;43.30;;;13.00;99.90;;;;;;5092168;28;20487;-78
2021/03/24 12:16:50;;;;;;;81.57;42.75;;;13.10;99.90;;;;;;5111555;28;20031;-78
2021/03/24 12:19:42;;;;;;;81.80;44.00;;;13.40;99.90;;;;;;5111843;28;20427;-78
2021/03/24 12:22:28;;;;;;;99.22;45.70;;;13.70;99.90;;;;;;5113119;28;20024;-78
2021/03/24 12:25:21;;;;;;;79.15;44.40;;;13.60;99.90;;;;;;5110510;28;20024;-78
2021/03/24 12:27:53;;;;;;;89.25;46.40;;;13.20;99.90;;;;;;5091413;28;20031;-78
2021/03/24 12:30:27;;;;;;;74.45;42.50;;;13.40;99.90;;;;;;5092500;28;20028;-78
2021/03/24 12:33:13;;;;;;;78.78;42.38;;;13.50;99.90;;;;;;5091313;28;20047;-78
2021/03/24 12:35:40;;;;;;;88.60;47.60;;;13.50;99.90;;;;;;5095314;28;20011;-79
2021/03/24 12:38:18;;;;;;;83.00;46.38;;;13.30;99.90;;;;;;5112659;27;20023;-78
2021/03/24 12:40:55;;;;;;;92.88;47.70;;;13.10;99.90;;;;;;5112886;28;20024;-79
2021/03/24 12:43:31;;;;;;;78.03;44.83;;;13.20;99.90;;;;;;5112886;28;20035;-79
2021/03/24 12:46:18;;;;;;;82.30;47.95;;;13.20;99.90;;;;;;5110336;28;20015;-79
2021/03/24 12:48:59;;;;;;;73.72;42.88;;;13.30;99.90;;;;;;5112500;28;20042;-78
2021/03/24 12:51:30;;;;;;;80.70;42.78;;;13.50;99.90;;;;;;5112685;28;20023;-79
2021/03/24 12:54:01;;;;;;;86.80;44.92;;;13.60;99.90;;;;;;5111863;28;20023;-78
2021/03/24 12:56:43;;;;;;;87.82;47.83;;;13.70;99.90;;;;;;5100296;28;20040;-79
2021/03/24 12:59:16;;;;;;;96.32;48.67;;;13.80;99.90;;;;;;5091961;28;20024;-78
2021/03/24 13:02:06;;;;;;;89.57;48.78;;;13.60;99.90;;;;;;5090646;28;20455;-78
2021/03/24 13:05:12;;;;;;;93.13;53.60;;;13.30;99.90;;;;;;5091056;28;20046;-79
2021/03/24 13:08:20;;;;;;;95.82;53.88;;;13.30;99.90;;;;;;5088833;28;20044;-79
2021/03/24 13:10:51;;;;;;;109.22;59.67;;;12.80;99.90;;;;;;5107614;28;20429;-76
2021/03/24 13:13:35;;;;;;;116.47;60.67;;;13.10;99.90;;;;;;5091956;28;20047;-76
2021/03/24 13:16:05;;;;;;;103.50;59.05;;;13.00;99.90;;;;;;5103359;28;20118;-76
2021/03/24 13:18:32;;;;;;;98.22;57.67;;;13.40;99.90;;;;;;5111999;28;20059;-77
2021/03/24 13:21:04;;;;;;;100.78;56.63;;;13.60;99.90;;;;;;5093614;28;20059;-76
2021/03/24 13:24:02;;;;;;;109.25;57.95;;;13.50;99.90;;;;;;5091856;28;20182;-76